sensor_id;sensor_type;location;lat;lon;timestamp;P1;durP1;ratioP1;P2;durP2;ratioP2
69754;SDS011;57023;52.218;5.158;2023-02-28T00:01:10;6.03;;;3.03;;
69754;SDS011;57023;52.218;5.158;2023-02-28T00:03:36;6.03;;;3.00;;
69754;SDS011;57023;52.218;5.158;2023-02-28T00:06:03;6.35;;;3.22;;
69754;SDS011;57023;52.218;5.158;2023-02-28T00:08:32;5.32;;;2.72;;
69754;SDS011;57023;52.218;5.158;2023-02-28T00:11:01;5.18;;;3.00;;
69754;SDS011;57023;52.218;5.158;2023-02-28T00:13:27;9.85;;;3.88;;
69754;SDS011;57023;52.218;5.158;2023-02-28T00:16:03;5.43;;;3.30;;
69754;SDS011;57023;52.218;5.158;2023-02-28T00:18:34;6.00;;;3.00;;
69754;SDS011;57023;52.218;5.158;2023-02-28T00:20:59;5.10;;;2.97;;
69754;SDS011;57023;52.218;5.158;2023-02-28T00:23:25;5.65;;;2.80;;
69754;SDS011;57023;52.218;5.158;2023-02-28T00:25:51;8.70;;;2.90;;
69754;SDS011;57023;52.218;5.158;2023-02-28T00:28:16;5.57;;;2.90;;
69754;SDS011;57023;52.218;5.158;2023-02-28T00:30:41;6.07;;;2.83;;
69754;SDS011;57023;52.218;5.158;2023-02-28T00:33:07;7.15;;;3.05;;
69754;SDS011;57023;52.218;5.158;2023-02-28T00:35:32;5.43;;;3.22;;
69754;SDS011;57023;52.218;5.158;2023-02-28T00:37:57;8.25;;;3.13;;
69754;SDS011;57023;52.218;5.158;2023-02-28T00:40:23;5.68;;;2.60;;
69754;SDS011;57023;52.218;5.158;2023-02-28T00:42:48;7.10;;;2.85;;
69754;SDS011;57023;52.218;5.158;2023-02-28T00:45:13;5.93;;;3.10;;
69754;SDS011;57023;52.218;5.158;2023-02-28T00:47:39;5.07;;;2.85;;
69754;SDS011;57023;52.218;5.158;2023-02-28T00:50:04;5.97;;;2.90;;
69754;SDS011;57023;52.218;5.158;2023-02-28T00:52:30;5.38;;;2.95;;
69754;SDS011;57023;52.218;5.158;2023-02-28T00:54:56;6.50;;;3.10;;
69754;SDS011;57023;52.218;5.158;2023-02-28T00:57:21;6.97;;;3.00;;
69754;SDS011;57023;52.218;5.158;2023-02-28T00:59:46;7.55;;;3.22;;
69754;SDS011;57023;52.218;5.158;2023-02-28T01:02:12;6.78;;;3.05;;
69754;SDS011;57023;52.218;5.158;2023-02-28T01:04:37;6.90;;;2.92;;
69754;SDS011;57023;52.218;5.158;2023-02-28T01:07:02;5.30;;;2.90;;
69754;SDS011;57023;52.218;5.158;2023-02-28T01:09:28;6.45;;;3.00;;
69754;SDS011;57023;52.218;5.158;2023-02-28T01:11:54;8.30;;;3.47;;
69754;SDS011;57023;52.218;5.158;2023-02-28T01:14:19;6.40;;;3.03;;
69754;SDS011;57023;52.218;5.158;2023-02-28T01:16:45;5.50;;;3.00;;
69754;SDS011;57023;52.218;5.158;2023-02-28T01:19:10;6.20;;;2.92;;
69754;SDS011;57023;52.218;5.158;2023-02-28T01:21:36;6.18;;;2.97;;
69754;SDS011;57023;52.218;5.158;2023-02-28T01:24:02;6.28;;;2.92;;
69754;SDS011;57023;52.218;5.158;2023-02-28T01:26:28;7.47;;;3.10;;
69754;SDS011;57023;52.218;5.158;2023-02-28T01:28:53;7.32;;;2.80;;
69754;SDS011;57023;52.218;5.158;2023-02-28T01:31:19;5.47;;;3.00;;
69754;SDS011;57023;52.218;5.158;2023-02-28T01:33:45;8.43;;;3.10;;
69754;SDS011;57023;52.218;5.158;2023-02-28T01:36:13;6.10;;;3.20;;
69754;SDS011;57023;52.218;5.158;2023-02-28T01:38:40;5.72;;;2.95;;
69754;SDS011;57023;52.218;5.158;2023-02-28T01:41:06;6.40;;;3.25;;
69754;SDS011;57023;52.218;5.158;2023-02-28T01:43:50;6.78;;;3.30;;
69754;SDS011;57023;52.218;5.158;2023-02-28T01:46:21;6.20;;;2.90;;
69754;SDS011;57023;52.218;5.158;2023-02-28T01:48:54;8.15;;;3.20;;
69754;SDS011;57023;52.218;5.158;2023-02-28T01:51:27;5.18;;;3.03;;
69754;SDS011;57023;52.218;5.158;2023-02-28T01:53:55;6.63;;;2.95;;
69754;SDS011;57023;52.218;5.158;2023-02-28T01:56:24;7.13;;;3.30;;
69754;SDS011;57023;52.218;5.158;2023-02-28T01:58:52;7.75;;;2.92;;
69754;SDS011;57023;52.218;5.158;2023-02-28T02:01:19;6.25;;;3.05;;
69754;SDS011;57023;52.218;5.158;2023-02-28T02:03:51;5.75;;;3.03;;
69754;SDS011;57023;52.218;5.158;2023-02-28T02:06:24;8.63;;;3.22;;
69754;SDS011;57023;52.218;5.158;2023-02-28T02:08:51;5.35;;;2.80;;
69754;SDS011;57023;52.218;5.158;2023-02-28T02:11:17;7.07;;;3.17;;
69754;SDS011;57023;52.218;5.158;2023-02-28T02:16:30;6.25;;;3.05;;
69754;SDS011;57023;52.218;5.158;2023-02-28T02:19:14;5.95;;;3.10;;
69754;SDS011;57023;52.218;5.158;2023-02-28T02:33:02;5.88;;;3.10;;
69754;SDS011;57023;52.218;5.158;2023-02-28T02:35:47;7.35;;;3.22;;
69754;SDS011;57023;52.218;5.158;2023-02-28T02:38:48;6.00;;;3.33;;
69754;SDS011;57023;52.218;5.158;2023-02-28T02:41:23;5.60;;;3.33;;
69754;SDS011;57023;52.218;5.158;2023-02-28T02:44:10;6.43;;;3.60;;
69754;SDS011;57023;52.218;5.158;2023-02-28T02:46:47;5.40;;;3.30;;
69754;SDS011;57023;52.218;5.158;2023-02-28T02:49:24;7.03;;;3.25;;
69754;SDS011;57023;52.218;5.158;2023-02-28T02:51:52;8.77;;;3.55;;
69754;SDS011;57023;52.218;5.158;2023-02-28T02:54:28;7.72;;;3.42;;
69754;SDS011;57023;52.218;5.158;2023-02-28T02:56:59;7.32;;;3.40;;
69754;SDS011;57023;52.218;5.158;2023-02-28T02:59:28;7.05;;;3.40;;
69754;SDS011;57023;52.218;5.158;2023-02-28T03:01:56;6.80;;;3.25;;
69754;SDS011;57023;52.218;5.158;2023-02-28T03:04:23;7.03;;;3.60;;
69754;SDS011;57023;52.218;5.158;2023-02-28T03:06:50;6.82;;;3.42;;
69754;SDS011;57023;52.218;5.158;2023-02-28T03:09:19;6.20;;;3.70;;
69754;SDS011;57023;52.218;5.158;2023-02-28T03:11:48;8.40;;;3.70;;
69754;SDS011;57023;52.218;5.158;2023-02-28T03:14:18;7.15;;;3.63;;
69754;SDS011;57023;52.218;5.158;2023-02-28T03:22:14;7.68;;;3.78;;
69754;SDS011;57023;52.218;5.158;2023-02-28T03:27:29;7.07;;;3.67;;
69754;SDS011;57023;52.218;5.158;2023-02-28T03:30:03;6.63;;;3.70;;
69754;SDS011;57023;52.218;5.158;2023-02-28T03:32:48;7.88;;;3.92;;
69754;SDS011;57023;52.218;5.158;2023-02-28T03:35:22;6.93;;;4.05;;
69754;SDS011;57023;52.218;5.158;2023-02-28T03:37:50;7.28;;;4.07;;
69754;SDS011;57023;52.218;5.158;2023-02-28T03:40:21;6.70;;;4.30;;
69754;SDS011;57023;52.218;5.158;2023-02-28T03:42:49;6.38;;;3.95;;
69754;SDS011;57023;52.218;5.158;2023-02-28T03:45:25;9.00;;;4.10;;
69754;SDS011;57023;52.218;5.158;2023-02-28T03:48:26;7.13;;;4.20;;
69754;SDS011;57023;52.218;5.158;2023-02-28T03:50:49;9.35;;;4.60;;
69754;SDS011;57023;52.218;5.158;2023-02-28T03:53:23;6.63;;;4.10;;
69754;SDS011;57023;52.218;5.158;2023-02-28T03:55:52;8.52;;;4.40;;
69754;SDS011;57023;52.218;5.158;2023-02-28T04:01:21;8.38;;;4.38;;
69754;SDS011;57023;52.218;5.158;2023-02-28T04:03:50;8.95;;;5.03;;
69754;SDS011;57023;52.218;5.158;2023-02-28T04:06:18;7.78;;;4.50;;
69754;SDS011;57023;52.218;5.158;2023-02-28T04:08:44;8.70;;;4.93;;
69754;SDS011;57023;52.218;5.158;2023-02-28T04:13:41;9.10;;;4.57;;
69754;SDS011;57023;52.218;5.158;2023-02-28T04:16:08;7.43;;;4.72;;
69754;SDS011;57023;52.218;5.158;2023-02-28T04:18:37;9.43;;;4.80;;
69754;SDS011;57023;52.218;5.158;2023-02-28T04:21:03;9.50;;;4.60;;
69754;SDS011;57023;52.218;5.158;2023-02-28T04:23:30;7.82;;;4.55;;
69754;SDS011;57023;52.218;5.158;2023-02-28T04:25:55;8.77;;;5.13;;
69754;SDS011;57023;52.218;5.158;2023-02-28T04:28:21;7.32;;;5.10;;
69754;SDS011;57023;52.218;5.158;2023-02-28T04:30:46;9.38;;;5.32;;
69754;SDS011;57023;52.218;5.158;2023-02-28T04:33:11;10.45;;;5.70;;
69754;SDS011;57023;52.218;5.158;2023-02-28T04:35:36;8.65;;;5.18;;
69754;SDS011;57023;52.218;5.158;2023-02-28T04:38:02;10.30;;;5.65;;
69754;SDS011;57023;52.218;5.158;2023-02-28T04:40:27;10.90;;;5.80;;
69754;SDS011;57023;52.218;5.158;2023-02-28T04:42:52;8.93;;;5.50;;
69754;SDS011;57023;52.218;5.158;2023-02-28T04:45:18;8.85;;;5.75;;
69754;SDS011;57023;52.218;5.158;2023-02-28T04:47:43;10.20;;;5.88;;
69754;SDS011;57023;52.218;5.158;2023-02-28T04:50:08;9.93;;;6.13;;
69754;SDS011;57023;52.218;5.158;2023-02-28T04:52:34;11.95;;;6.15;;
69754;SDS011;57023;52.218;5.158;2023-02-28T04:54:59;13.27;;;6.10;;
69754;SDS011;57023;52.218;5.158;2023-02-28T04:57:25;12.05;;;6.55;;
69754;SDS011;57023;52.218;5.158;2023-02-28T04:59:50;12.20;;;6.38;;
69754;SDS011;57023;52.218;5.158;2023-02-28T05:02:15;10.05;;;6.45;;
69754;SDS011;57023;52.218;5.158;2023-02-28T05:04:41;12.32;;;6.43;;
69754;SDS011;57023;52.218;5.158;2023-02-28T05:07:06;11.48;;;6.88;;
69754;SDS011;57023;52.218;5.158;2023-02-28T05:09:31;12.35;;;6.70;;
69754;SDS011;57023;52.218;5.158;2023-02-28T05:11:58;11.32;;;7.05;;
69754;SDS011;57023;52.218;5.158;2023-02-28T05:14:23;11.35;;;6.78;;
69754;SDS011;57023;52.218;5.158;2023-02-28T05:16:48;11.80;;;6.03;;
69754;SDS011;57023;52.218;5.158;2023-02-28T05:19:14;9.90;;;6.00;;
69754;SDS011;57023;52.218;5.158;2023-02-28T05:21:49;9.35;;;5.97;;
69754;SDS011;57023;52.218;5.158;2023-02-28T05:24:17;7.63;;;4.70;;
69754;SDS011;57023;52.218;5.158;2023-02-28T05:26:47;8.68;;;5.05;;
69754;SDS011;57023;52.218;5.158;2023-02-28T05:29:13;8.55;;;4.82;;
69754;SDS011;57023;52.218;5.158;2023-02-28T05:31:38;7.82;;;4.43;;
69754;SDS011;57023;52.218;5.158;2023-02-28T05:34:04;6.82;;;4.35;;
69754;SDS011;57023;52.218;5.158;2023-02-28T05:36:30;6.20;;;4.20;;
69754;SDS011;57023;52.218;5.158;2023-02-28T05:38:55;10.15;;;4.38;;
69754;SDS011;57023;52.218;5.158;2023-02-28T05:41:21;8.05;;;3.88;;
69754;SDS011;57023;52.218;5.158;2023-02-28T05:43:46;6.03;;;3.72;;
69754;SDS011;57023;52.218;5.158;2023-02-28T05:46:12;7.57;;;3.80;;
69754;SDS011;57023;52.218;5.158;2023-02-28T05:48:38;6.75;;;3.58;;
69754;SDS011;57023;52.218;5.158;2023-02-28T05:51:05;5.80;;;3.47;;
69754;SDS011;57023;52.218;5.158;2023-02-28T05:53:31;6.13;;;4.00;;
69754;SDS011;57023;52.218;5.158;2023-02-28T05:55:56;7.32;;;3.95;;
69754;SDS011;57023;52.218;5.158;2023-02-28T05:58:22;5.80;;;3.60;;
69754;SDS011;57023;52.218;5.158;2023-02-28T06:00:47;6.55;;;3.80;;
69754;SDS011;57023;52.218;5.158;2023-02-28T06:03:13;6.57;;;3.97;;
69754;SDS011;57023;52.218;5.158;2023-02-28T06:05:38;6.68;;;4.00;;
69754;SDS011;57023;52.218;5.158;2023-02-28T06:08:04;6.30;;;3.67;;
69754;SDS011;57023;52.218;5.158;2023-02-28T06:10:31;7.47;;;4.15;;
69754;SDS011;57023;52.218;5.158;2023-02-28T06:12:59;6.93;;;4.18;;
69754;SDS011;57023;52.218;5.158;2023-02-28T06:15:25;7.35;;;4.20;;
69754;SDS011;57023;52.218;5.158;2023-02-28T06:17:51;7.78;;;4.03;;
69754;SDS011;57023;52.218;5.158;2023-02-28T06:20:17;8.50;;;4.40;;
69754;SDS011;57023;52.218;5.158;2023-02-28T06:22:42;6.68;;;4.03;;
69754;SDS011;57023;52.218;5.158;2023-02-28T06:25:08;7.05;;;4.13;;
69754;SDS011;57023;52.218;5.158;2023-02-28T06:27:34;8.67;;;4.20;;
69754;SDS011;57023;52.218;5.158;2023-02-28T06:29:59;8.40;;;5.18;;
69754;SDS011;57023;52.218;5.158;2023-02-28T06:32:25;7.75;;;4.45;;
69754;SDS011;57023;52.218;5.158;2023-02-28T06:34:50;8.57;;;4.32;;
69754;SDS011;57023;52.218;5.158;2023-02-28T06:37:16;10.38;;;5.60;;
69754;SDS011;57023;52.218;5.158;2023-02-28T06:39:42;10.70;;;5.82;;
69754;SDS011;57023;52.218;5.158;2023-02-28T06:42:07;11.27;;;6.78;;
69754;SDS011;57023;52.218;5.158;2023-02-28T06:44:33;10.13;;;5.60;;
69754;SDS011;57023;52.218;5.158;2023-02-28T06:47:00;9.15;;;5.18;;
69754;SDS011;57023;52.218;5.158;2023-02-28T06:49:29;8.20;;;5.35;;
69754;SDS011;57023;52.218;5.158;2023-02-28T06:51:55;7.82;;;5.03;;
69754;SDS011;57023;52.218;5.158;2023-02-28T06:54:20;10.90;;;6.78;;
69754;SDS011;57023;52.218;5.158;2023-02-28T06:56:46;8.43;;;5.75;;
69754;SDS011;57023;52.218;5.158;2023-02-28T06:59:11;9.10;;;5.55;;
69754;SDS011;57023;52.218;5.158;2023-02-28T07:01:37;8.77;;;5.60;;
69754;SDS011;57023;52.218;5.158;2023-02-28T07:04:03;10.02;;;5.60;;
69754;SDS011;57023;52.218;5.158;2023-02-28T07:06:30;10.68;;;5.88;;
69754;SDS011;57023;52.218;5.158;2023-02-28T07:08:55;11.32;;;6.68;;
69754;SDS011;57023;52.218;5.158;2023-02-28T07:11:21;10.82;;;6.43;;
69754;SDS011;57023;52.218;5.158;2023-02-28T07:13:50;10.30;;;6.32;;
69754;SDS011;57023;52.218;5.158;2023-02-28T07:16:15;9.70;;;6.22;;
69754;SDS011;57023;52.218;5.158;2023-02-28T07:18:41;10.93;;;6.00;;
69754;SDS011;57023;52.218;5.158;2023-02-28T07:21:08;8.88;;;5.80;;
69754;SDS011;57023;52.218;5.158;2023-02-28T07:23:34;9.60;;;5.90;;
69754;SDS011;57023;52.218;5.158;2023-02-28T07:26:00;10.27;;;5.90;;
69754;SDS011;57023;52.218;5.158;2023-02-28T07:28:25;10.70;;;5.80;;
69754;SDS011;57023;52.218;5.158;2023-02-28T07:30:51;10.27;;;5.63;;
69754;SDS011;57023;52.218;5.158;2023-02-28T07:33:16;10.52;;;6.00;;
69754;SDS011;57023;52.218;5.158;2023-02-28T07:35:41;9.13;;;5.95;;
69754;SDS011;57023;52.218;5.158;2023-02-28T07:38:07;9.82;;;6.13;;
69754;SDS011;57023;52.218;5.158;2023-02-28T07:40:33;10.20;;;6.13;;
69754;SDS011;57023;52.218;5.158;2023-02-28T07:42:59;12.43;;;5.78;;
69754;SDS011;57023;52.218;5.158;2023-02-28T07:45:27;10.68;;;6.25;;
69754;SDS011;57023;52.218;5.158;2023-02-28T07:47:54;10.07;;;6.25;;
69754;SDS011;57023;52.218;5.158;2023-02-28T07:50:19;10.38;;;6.72;;
69754;SDS011;57023;52.218;5.158;2023-02-28T07:52:44;10.05;;;6.35;;
69754;SDS011;57023;52.218;5.158;2023-02-28T07:55:10;10.80;;;6.78;;
69754;SDS011;57023;52.218;5.158;2023-02-28T07:57:35;12.18;;;6.13;;
69754;SDS011;57023;52.218;5.158;2023-02-28T08:00:01;11.02;;;6.60;;
69754;SDS011;57023;52.218;5.158;2023-02-28T08:02:28;12.57;;;6.88;;
69754;SDS011;57023;52.218;5.158;2023-02-28T08:04:53;11.38;;;7.03;;
69754;SDS011;57023;52.218;5.158;2023-02-28T08:07:19;11.15;;;6.72;;
69754;SDS011;57023;52.218;5.158;2023-02-28T08:09:44;9.73;;;6.70;;
69754;SDS011;57023;52.218;5.158;2023-02-28T08:12:09;11.65;;;7.38;;
69754;SDS011;57023;52.218;5.158;2023-02-28T08:14:36;11.15;;;6.13;;
69754;SDS011;57023;52.218;5.158;2023-02-28T08:17:02;11.38;;;6.90;;
69754;SDS011;57023;52.218;5.158;2023-02-28T08:19:28;12.32;;;7.03;;
69754;SDS011;57023;52.218;5.158;2023-02-28T08:21:54;10.73;;;7.00;;
69754;SDS011;57023;52.218;5.158;2023-02-28T08:24:19;13.90;;;7.18;;
69754;SDS011;57023;52.218;5.158;2023-02-28T08:26:45;11.30;;;7.43;;
69754;SDS011;57023;52.218;5.158;2023-02-28T08:29:10;12.27;;;7.40;;
69754;SDS011;57023;52.218;5.158;2023-02-28T08:31:35;11.27;;;6.55;;
69754;SDS011;57023;52.218;5.158;2023-02-28T08:34:05;12.30;;;7.78;;
69754;SDS011;57023;52.218;5.158;2023-02-28T08:36:34;12.27;;;6.90;;
69754;SDS011;57023;52.218;5.158;2023-02-28T08:38:59;13.60;;;7.57;;
69754;SDS011;57023;52.218;5.158;2023-02-28T08:41:25;11.18;;;7.40;;
69754;SDS011;57023;52.218;5.158;2023-02-28T08:43:50;11.73;;;6.97;;
69754;SDS011;57023;52.218;5.158;2023-02-28T08:46:16;13.15;;;7.45;;
69754;SDS011;57023;52.218;5.158;2023-02-28T08:48:41;12.23;;;7.30;;
69754;SDS011;57023;52.218;5.158;2023-02-28T08:51:08;16.42;;;7.22;;
69754;SDS011;57023;52.218;5.158;2023-02-28T08:56:07;10.43;;;6.50;;
69754;SDS011;57023;52.218;5.158;2023-02-28T08:58:34;14.55;;;7.43;;
69754;SDS011;57023;52.218;5.158;2023-02-28T09:00:59;12.35;;;6.68;;
69754;SDS011;57023;52.218;5.158;2023-02-28T09:03:25;9.35;;;6.40;;
69754;SDS011;57023;52.218;5.158;2023-02-28T09:05:55;10.65;;;5.93;;
69754;SDS011;57023;52.218;5.158;2023-02-28T09:08:21;12.27;;;5.78;;
69754;SDS011;57023;52.218;5.158;2023-02-28T09:10:47;10.25;;;6.00;;
69754;SDS011;57023;52.218;5.158;2023-02-28T09:13:12;9.65;;;5.65;;
69754;SDS011;57023;52.218;5.158;2023-02-28T09:15:38;8.93;;;5.72;;
69754;SDS011;57023;52.218;5.158;2023-02-28T09:18:03;10.80;;;5.30;;
69754;SDS011;57023;52.218;5.158;2023-02-28T09:20:29;9.52;;;5.50;;
69754;SDS011;57023;52.218;5.158;2023-02-28T09:22:54;10.00;;;5.85;;
69754;SDS011;57023;52.218;5.158;2023-02-28T09:25:19;7.35;;;4.97;;
69754;SDS011;57023;52.218;5.158;2023-02-28T09:27:45;8.57;;;5.22;;
69754;SDS011;57023;52.218;5.158;2023-02-28T09:30:10;9.00;;;4.85;;
69754;SDS011;57023;52.218;5.158;2023-02-28T09:32:36;7.38;;;5.10;;
69754;SDS011;57023;52.218;5.158;2023-02-28T09:35:02;7.35;;;4.80;;
69754;SDS011;57023;52.218;5.158;2023-02-28T09:37:27;8.02;;;5.10;;
69754;SDS011;57023;52.218;5.158;2023-02-28T09:39:54;13.30;;;4.97;;
69754;SDS011;57023;52.218;5.158;2023-02-28T09:42:29;9.52;;;4.75;;
69754;SDS011;57023;52.218;5.158;2023-02-28T09:44:56;8.45;;;5.63;;
69754;SDS011;57023;52.218;5.158;2023-02-28T09:47:26;16.60;;;6.25;;
69754;SDS011;57023;52.218;5.158;2023-02-28T09:49:56;11.57;;;5.35;;
69754;SDS011;57023;52.218;5.158;2023-02-28T09:52:30;9.68;;;4.53;;
69754;SDS011;57023;52.218;5.158;2023-02-28T09:55:19;8.30;;;4.93;;
69754;SDS011;57023;52.218;5.158;2023-02-28T09:58:00;7.80;;;4.70;;
69754;SDS011;57023;52.218;5.158;2023-02-28T10:00:36;7.18;;;4.47;;
69754;SDS011;57023;52.218;5.158;2023-02-28T10:05:39;6.75;;;4.63;;
69754;SDS011;57023;52.218;5.158;2023-02-28T10:08:24;7.75;;;4.20;;
69754;SDS011;57023;52.218;5.158;2023-02-28T10:10:53;16.80;;;5.15;;
69754;SDS011;57023;52.218;5.158;2023-02-28T10:16:25;7.22;;;4.78;;
69754;SDS011;57023;52.218;5.158;2023-02-28T10:18:57;6.10;;;4.13;;
69754;SDS011;57023;52.218;5.158;2023-02-28T10:21:40;6.57;;;4.00;;
69754;SDS011;57023;52.218;5.158;2023-02-28T10:27:01;10.68;;;4.35;;
69754;SDS011;57023;52.218;5.158;2023-02-28T10:29:38;7.90;;;4.07;;
69754;SDS011;57023;52.218;5.158;2023-02-28T10:32:05;6.35;;;4.28;;
69754;SDS011;57023;52.218;5.158;2023-02-28T10:34:30;6.45;;;4.15;;
69754;SDS011;57023;52.218;5.158;2023-02-28T10:36:56;7.20;;;4.40;;
69754;SDS011;57023;52.218;5.158;2023-02-28T10:39:53;5.68;;;4.10;;
69754;SDS011;57023;52.218;5.158;2023-02-28T10:45:04;6.03;;;3.50;;
69754;SDS011;57023;52.218;5.158;2023-02-28T10:48:05;6.70;;;4.35;;
69754;SDS011;57023;52.218;5.158;2023-02-28T10:50:35;6.50;;;4.20;;
69754;SDS011;57023;52.218;5.158;2023-02-28T10:53:05;5.32;;;3.40;;
69754;SDS011;57023;52.218;5.158;2023-02-28T10:55:35;5.65;;;3.38;;
69754;SDS011;57023;52.218;5.158;2023-02-28T10:58:01;6.20;;;3.30;;
69754;SDS011;57023;52.218;5.158;2023-02-28T11:00:31;5.40;;;3.53;;
69754;SDS011;57023;52.218;5.158;2023-02-28T11:02:58;5.32;;;2.90;;
69754;SDS011;57023;52.218;5.158;2023-02-28T11:05:34;5.60;;;3.25;;
69754;SDS011;57023;52.218;5.158;2023-02-28T11:10:30;5.97;;;3.30;;
69754;SDS011;57023;52.218;5.158;2023-02-28T11:12:59;6.07;;;3.30;;
69754;SDS011;57023;52.218;5.158;2023-02-28T11:15:33;4.65;;;3.30;;
69754;SDS011;57023;52.218;5.158;2023-02-28T11:17:59;5.07;;;3.10;;
69754;SDS011;57023;52.218;5.158;2023-02-28T11:20:28;4.65;;;2.90;;
69754;SDS011;57023;52.218;5.158;2023-02-28T11:22:55;5.45;;;3.03;;
69754;SDS011;57023;52.218;5.158;2023-02-28T11:25:22;5.07;;;2.85;;
69754;SDS011;57023;52.218;5.158;2023-02-28T11:27:50;4.85;;;3.03;;
69754;SDS011;57023;52.218;5.158;2023-02-28T11:30:24;4.93;;;3.10;;
69754;SDS011;57023;52.218;5.158;2023-02-28T11:32:54;5.28;;;3.30;;
69754;SDS011;57023;52.218;5.158;2023-02-28T11:35:28;4.90;;;3.20;;
69754;SDS011;57023;52.218;5.158;2023-02-28T11:38:02;6.00;;;3.42;;
69754;SDS011;57023;52.218;5.158;2023-02-28T11:40:30;7.45;;;3.20;;
69754;SDS011;57023;52.218;5.158;2023-02-28T11:46:00;6.55;;;3.25;;
69754;SDS011;57023;52.218;5.158;2023-02-28T11:48:58;7.05;;;3.47;;
69754;SDS011;57023;52.218;5.158;2023-02-28T11:51:48;5.15;;;3.38;;
69754;SDS011;57023;52.218;5.158;2023-02-28T12:05:24;4.68;;;3.15;;
69754;SDS011;57023;52.218;5.158;2023-02-28T12:08:20;6.70;;;3.13;;
69754;SDS011;57023;52.218;5.158;2023-02-28T12:11:02;5.20;;;2.97;;
69754;SDS011;57023;52.218;5.158;2023-02-28T12:13:45;6.68;;;3.05;;
69754;SDS011;57023;52.218;5.158;2023-02-28T12:26:51;4.85;;;2.90;;
69754;SDS011;57023;52.218;5.158;2023-02-28T12:29:23;6.43;;;3.70;;
69754;SDS011;57023;52.218;5.158;2023-02-28T12:32:03;4.80;;;3.20;;
69754;SDS011;57023;52.218;5.158;2023-02-28T12:34:31;4.70;;;3.20;;
69754;SDS011;57023;52.218;5.158;2023-02-28T12:36:59;5.10;;;3.05;;
69754;SDS011;57023;52.218;5.158;2023-02-28T12:39:30;4.35;;;2.78;;
69754;SDS011;57023;52.218;5.158;2023-02-28T12:42:05;4.10;;;2.90;;
69754;SDS011;57023;52.218;5.158;2023-02-28T12:44:35;4.63;;;3.00;;
69754;SDS011;57023;52.218;5.158;2023-02-28T12:47:16;5.30;;;3.10;;
69754;SDS011;57023;52.218;5.158;2023-02-28T12:55:31;5.20;;;3.08;;
69754;SDS011;57023;52.218;5.158;2023-02-28T12:58:07;4.75;;;2.97;;
69754;SDS011;57023;52.218;5.158;2023-02-28T13:00:37;5.20;;;3.05;;
69754;SDS011;57023;52.218;5.158;2023-02-28T13:03:10;5.00;;;2.97;;
69754;SDS011;57023;52.218;5.158;2023-02-28T13:06:02;4.43;;;2.80;;
69754;SDS011;57023;52.218;5.158;2023-02-28T13:11:28;4.90;;;2.80;;
69754;SDS011;57023;52.218;5.158;2023-02-28T13:14:37;4.13;;;2.70;;
69754;SDS011;57023;52.218;5.158;2023-02-28T13:16:58;6.32;;;3.10;;
69754;SDS011;57023;52.218;5.158;2023-02-28T13:19:26;4.80;;;3.15;;
69754;SDS011;57023;52.218;5.158;2023-02-28T13:21:53;4.22;;;2.80;;
69754;SDS011;57023;52.218;5.158;2023-02-28T13:24:39;4.57;;;2.95;;
69754;SDS011;57023;52.218;5.158;2023-02-28T13:29:35;4.80;;;2.90;;
69754;SDS011;57023;52.218;5.158;2023-02-28T13:34:34;4.38;;;2.85;;
69754;SDS011;57023;52.218;5.158;2023-02-28T13:39:48;5.68;;;2.72;;
69754;SDS011;57023;52.218;5.158;2023-02-28T13:50:14;8.00;;;2.90;;
69754;SDS011;57023;52.218;5.158;2023-02-28T13:58:35;4.63;;;3.08;;
69754;SDS011;57023;52.218;5.158;2023-02-28T14:01:25;4.50;;;2.90;;
69754;SDS011;57023;52.218;5.158;2023-02-28T14:06:32;6.22;;;2.90;;
69754;SDS011;57023;52.218;5.158;2023-02-28T14:08:59;4.10;;;2.80;;
69754;SDS011;57023;52.218;5.158;2023-02-28T14:11:30;5.85;;;2.80;;
69754;SDS011;57023;52.218;5.158;2023-02-28T14:13:57;4.35;;;2.60;;
69754;SDS011;57023;52.218;5.158;2023-02-28T14:16:24;4.32;;;2.97;;
69754;SDS011;57023;52.218;5.158;2023-02-28T14:18:58;5.50;;;3.05;;
69754;SDS011;57023;52.218;5.158;2023-02-28T14:21:36;4.50;;;2.90;;
69754;SDS011;57023;52.218;5.158;2023-02-28T14:31:38;4.80;;;2.80;;
69754;SDS011;57023;52.218;5.158;2023-02-28T14:37:09;4.47;;;2.90;;
69754;SDS011;57023;52.218;5.158;2023-02-28T14:39:46;4.93;;;3.20;;
69754;SDS011;57023;52.218;5.158;2023-02-28T14:44:55;4.90;;;2.90;;
69754;SDS011;57023;52.218;5.158;2023-02-28T14:47:25;5.05;;;3.13;;
69754;SDS011;57023;52.218;5.158;2023-02-28T14:49:53;5.25;;;3.00;;
69754;SDS011;57023;52.218;5.158;2023-02-28T14:52:21;4.80;;;3.10;;
69754;SDS011;57023;52.218;5.158;2023-02-28T14:54:52;4.60;;;3.00;;
69754;SDS011;57023;52.218;5.158;2023-02-28T15:02:30;5.82;;;3.20;;
69754;SDS011;57023;52.218;5.158;2023-02-28T15:04:59;5.30;;;3.40;;
69754;SDS011;57023;52.218;5.158;2023-02-28T15:07:27;4.53;;;3.00;;
69754;SDS011;57023;52.218;5.158;2023-02-28T15:12:36;4.60;;;3.30;;
69754;SDS011;57023;52.218;5.158;2023-02-28T15:15:02;4.90;;;3.20;;
69754;SDS011;57023;52.218;5.158;2023-02-28T15:17:28;5.78;;;3.85;;
69754;SDS011;57023;52.218;5.158;2023-02-28T15:19:53;5.70;;;3.40;;
69754;SDS011;57023;52.218;5.158;2023-02-28T15:22:23;5.20;;;3.58;;
69754;SDS011;57023;52.218;5.158;2023-02-28T15:24:54;5.05;;;3.30;;
69754;SDS011;57023;52.218;5.158;2023-02-28T15:27:24;4.95;;;3.40;;
69754;SDS011;57023;52.218;5.158;2023-02-28T15:29:53;4.90;;;3.20;;
69754;SDS011;57023;52.218;5.158;2023-02-28T15:32:23;6.25;;;3.40;;
69754;SDS011;57023;52.218;5.158;2023-02-28T15:34:48;5.85;;;3.50;;
69754;SDS011;57023;52.218;5.158;2023-02-28T15:37:27;5.15;;;3.63;;
69754;SDS011;57023;52.218;5.158;2023-02-28T15:40:12;6.67;;;3.33;;
69754;SDS011;57023;52.218;5.158;2023-02-28T15:42:39;4.90;;;3.30;;
69754;SDS011;57023;52.218;5.158;2023-02-28T15:45:05;7.63;;;3.40;;
69754;SDS011;57023;52.218;5.158;2023-02-28T15:47:30;5.75;;;3.22;;
69754;SDS011;57023;52.218;5.158;2023-02-28T15:49:57;5.72;;;3.42;;
69754;SDS011;57023;52.218;5.158;2023-02-28T15:54:53;6.25;;;3.90;;
69754;SDS011;57023;52.218;5.158;2023-02-28T15:57:20;6.05;;;4.00;;
69754;SDS011;57023;52.218;5.158;2023-02-28T15:59:52;8.10;;;5.35;;
69754;SDS011;57023;52.218;5.158;2023-02-28T16:02:20;8.27;;;4.78;;
69754;SDS011;57023;52.218;5.158;2023-02-28T16:07:31;7.60;;;4.13;;
69754;SDS011;57023;52.218;5.158;2023-02-28T16:09:57;6.40;;;4.17;;
69754;SDS011;57023;52.218;5.158;2023-02-28T16:12:25;6.13;;;4.10;;
69754;SDS011;57023;52.218;5.158;2023-02-28T16:14:53;5.72;;;3.78;;
69754;SDS011;57023;52.218;5.158;2023-02-28T16:17:21;5.30;;;3.78;;
69754;SDS011;57023;52.218;5.158;2023-02-28T16:19:48;6.40;;;3.85;;
69754;SDS011;57023;52.218;5.158;2023-02-28T16:22:13;6.55;;;4.55;;
69754;SDS011;57023;52.218;5.158;2023-02-28T16:24:39;5.68;;;3.90;;
69754;SDS011;57023;52.218;5.158;2023-02-28T16:27:05;5.90;;;3.80;;
69754;SDS011;57023;52.218;5.158;2023-02-28T16:29:32;5.97;;;4.10;;
69754;SDS011;57023;52.218;5.158;2023-02-28T16:32:00;7.20;;;4.13;;
69754;SDS011;57023;52.218;5.158;2023-02-28T16:34:26;5.72;;;3.72;;
69754;SDS011;57023;52.218;5.158;2023-02-28T16:36:51;6.13;;;4.18;;
69754;SDS011;57023;52.218;5.158;2023-02-28T16:39:17;7.13;;;4.30;;
69754;SDS011;57023;52.218;5.158;2023-02-28T16:41:45;6.72;;;4.05;;
69754;SDS011;57023;52.218;5.158;2023-02-28T16:44:13;6.60;;;4.17;;
69754;SDS011;57023;52.218;5.158;2023-02-28T16:46:48;7.13;;;4.18;;
69754;SDS011;57023;52.218;5.158;2023-02-28T16:49:13;7.55;;;4.63;;
69754;SDS011;57023;52.218;5.158;2023-02-28T16:51:39;7.78;;;4.60;;
69754;SDS011;57023;52.218;5.158;2023-02-28T16:54:04;8.82;;;5.38;;
69754;SDS011;57023;52.218;5.158;2023-02-28T16:56:29;7.57;;;4.90;;
69754;SDS011;57023;52.218;5.158;2023-02-28T16:58:55;6.22;;;4.10;;
69754;SDS011;57023;52.218;5.158;2023-02-28T17:01:24;7.57;;;4.50;;
69754;SDS011;57023;52.218;5.158;2023-02-28T17:03:52;6.70;;;3.88;;